Del Rio, Texas
Current Conditions -  °F | °C
As of 8:53 PM on Saturday 25 Oct 2014 (Local Time) from KDRT Reporting Station
Clear Clear  
Wind Chill: 75°   Ceiling: Unl
Heat Index: 75°   Visibility: 10mi
Dew Point: 59°   Wind: 6mph
Humidity: 57%   Direction: 140°SE
Pressure: 30.07"   Gusts: NA
Location:  29.37°N, 100.89°W
Report Text: KDRT 260153Z AUTO 14005KT 10SM CLR 24/15 A3007 RMK AO2 SLP168 T02390150
Loading
Personal Weather Stations






























Interactive Weather Map
Tropical Storm Tracking
New forecast layout! Learn more

10-Day Weather Forecast

Advertisements
Track Severe Weather on mobile